Madigan Hospital, Washington
Current Conditions -  °F | °C
As of 9:13 AM on Sunday 23 Nov 2014 (Local Time) from KGRF Reporting Station
Light Rain Light Rain  
Wind Chill: 40°   Ceiling: 4500
Heat Index: 46°   Visibility: 10mi
Dew Point: 46°   Wind: 14mph
Humidity: 100%   Direction: 170°S
Pressure: 30.12"   Gusts: NA
Location:  47.1056°N, 122.55°W
Report Text: KGRF 231713Z AUTO 17012KT 10SM -RA SCT027 BKN045 OVC055 08/08 A3012 RMK AO2
Loading
Personal Weather Stations






























Interactive Weather Map New forecast layout! Learn more

10-Day Weather Forecast

Advertisements
Track Severe Weather on mobile